Time;durP1;ratioP1;P1;durP2;ratioP2;P2;SDS_P1;SDS_P2;PMS_P1;PMS_P2;Temp;Humidity;BMP_temperature;BMP_pressure;BME280_temperature;BME280_humidity;BME280_pressure;Samples;Min_cycle;Max_cycle;Signal;HPM_P1;HPM_P2
2022/03/27 00:00:48;;;;;;;11.70;9.67;;;;;;;10.44;44.23;100380.03;5072680;28;20189;-73
2022/03/27 00:03:15;;;;;;;15.93;9.57;;;;;;;10.43;43.87;100370.41;5074109;28;20219;-74
2022/03/27 00:05:41;;;;;;;13.70;9.60;;;;;;;10.48;44.08;100376.84;5073265;28;20586;-75
2022/03/27 00:08:09;;;;;;;10.83;8.40;;;;;;;10.46;43.72;100370.88;5074000;28;20194;-75
2022/03/27 00:13:18;;;;;;;9.27;8.30;;;;;;;10.59;43.80;100376.44;5073339;28;20199;-74
2022/03/27 00:15:44;;;;;;;10.30;8.17;;;;;;;10.56;43.59;100376.81;5073736;28;20717;-73
2022/03/27 00:18:11;;;;;;;14.63;8.30;;;;;;;10.54;43.55;100370.84;5073162;28;20716;-73
2022/03/27 00:20:38;;;;;;;13.83;8.63;;;;;;;10.49;43.55;100364.38;5073511;28;20187;-74
2022/03/27 00:23:04;;;;;;;11.97;8.10;;;;;;;10.46;43.32;100375.38;5073078;28;20192;-75
2022/03/27 00:25:31;;;;;;;8.33;7.40;;;;;;;10.59;43.49;100380.97;5073032;28;20549;-75
2022/03/27 00:27:59;;;;;;;15.00;7.47;;;;;;;10.73;43.05;100372.22;5074099;28;20195;-74
2022/03/27 00:30:26;;;;;;;9.60;7.60;;;;;;;10.68;43.57;100378.09;5073300;28;20189;-73
2022/03/27 00:32:53;;;;;;;7.93;7.03;;;;;;;10.54;42.45;100376.16;5073269;28;20279;-73
2022/03/27 00:35:20;;;;;;;10.37;6.63;;;;;;;10.47;42.81;100374.38;5073451;28;20200;-73
2022/03/27 00:37:46;;;;;;;10.53;6.90;;;;;;;10.56;42.65;100375.97;5072772;28;20790;-73
2022/03/27 00:40:14;;;;;;;8.87;5.70;;;;;;;10.56;42.33;100370.66;5073114;28;20255;-74
2022/03/27 00:42:42;;;;;;;13.70;6.63;;;;;;;10.66;41.48;100373.94;5073229;28;20202;-74
2022/03/27 00:45:11;;;;;;;7.03;6.13;;;;;;;10.80;41.41;100378.50;5073013;28;20288;-74
2022/03/27 00:47:37;;;;;;;11.03;6.37;;;;;;;10.86;41.28;100372.47;5072964;28;20193;-73
2022/03/27 00:50:05;;;;;;;6.30;5.70;;;;;;;10.73;40.98;100358.94;5073516;28;20201;-73
2022/03/27 00:52:32;;;;;;;12.30;5.90;;;;;;;10.97;40.67;100369.41;5072937;28;20197;-73
2022/03/27 00:55:00;;;;;;;9.27;5.90;;;;;;;11.03;40.53;100374.03;5072825;28;20202;-73
2022/03/27 00:57:27;;;;;;;6.73;6.10;;;;;;;11.06;40.00;100372.84;5072985;28;20188;-73
2022/03/27 00:59:54;;;;;;;10.03;5.83;;;;;;;11.10;39.72;100366.19;5073581;28;20189;-74
2022/03/27 01:02:22;;;;;;;10.70;6.23;;;;;;;11.18;39.76;100366.91;5073445;28;20249;-74
2022/03/27 01:04:49;;;;;;;8.43;6.27;;;;;;;11.35;39.73;100372.94;5072313;28;20255;-74
2022/03/27 01:07:19;;;;;;;11.87;6.30;;;;;;;11.31;39.95;100371.66;5072876;28;20374;-74
2022/03/27 01:09:45;;;;;;;7.00;6.30;;;;;;;11.36;40.23;100375.44;5072570;28;20285;-73
2022/03/27 01:12:21;;;;;;;11.53;6.87;;;;;;;11.26;40.63;100374.03;5072589;28;20257;-73
2022/03/27 01:14:48;;;;;;;12.30;7.23;;;;;;;11.34;40.79;100372.09;5073375;28;20216;-73
2022/03/27 01:17:16;;;;;;;8.43;5.97;;;;;;;11.33;40.67;100367.78;5072203;28;20633;-74
2022/03/27 01:19:46;;;;;;;6.87;6.17;;;;;;;11.25;41.08;100362.56;5072263;28;20228;-73
2022/03/27 01:22:15;;;;;;;8.87;7.03;;;;;;;11.28;41.12;100367.50;5072369;28;20228;-74
2022/03/27 01:24:42;;;;;;;9.17;6.67;;;;;;;11.17;41.60;100359.13;5072937;28;20270;-73
2022/03/27 01:27:09;;;;;;;9.30;6.90;;;;;;;11.09;41.35;100365.34;5071759;28;20228;-73
2022/03/27 01:29:36;;;;;;;9.23;6.50;;;;;;;11.07;41.67;100360.19;5072349;28;20263;-74
2022/03/27 01:32:05;;;;;;;10.43;6.50;;;;;;;11.07;41.14;100359.38;5066909;28;20200;-73
2022/03/27 01:34:32;;;;;;;10.80;6.83;;;;;;;11.02;41.46;100351.09;5051960;28;20738;-73
2022/03/27 01:37:04;;;;;;;11.40;6.80;;;;;;;10.87;41.43;100352.88;5052787;28;20272;-73
2022/03/27 01:39:32;;;;;;;6.97;6.37;;;;;;;10.69;42.54;100349.66;5051845;28;20686;-73
2022/03/27 01:41:59;;;;;;;9.23;6.37;;;;;;;10.54;42.14;100351.44;5051872;28;20196;-73
2022/03/27 01:44:26;;;;;;;9.47;6.53;;;;;;;10.46;42.39;100348.81;5051853;28;20196;-73
2022/03/27 01:46:55;;;;;;;7.90;6.27;;;;;;;10.45;42.11;100341.84;5052156;28;20244;-73
2022/03/27 01:49:22;;;;;;;11.07;6.17;;;;;;;10.56;41.77;100344.94;5052132;28;20288;-73
2022/03/27 01:51:49;;;;;;;8.37;5.83;;;;;;;10.63;41.50;100351.19;5052694;28;20195;-73
2022/03/27 01:54:15;;;;;;;6.73;5.47;;;;;;;10.64;41.64;100344.91;5051710;28;20252;-73
2022/03/27 01:56:44;;;;;;;12.33;7.03;;;;;;;10.64;41.55;100352.03;5051730;28;20205;-73
2022/03/27 01:59:11;;;;;;;9.63;6.43;;;;;;;10.61;41.68;100347.91;5051675;28;20760;-74
2022/03/27 02:01:38;;;;;;;10.27;6.40;;;;;;;10.61;42.35;100347.06;5052461;28;20291;-73
2022/03/27 02:04:06;;;;;;;9.53;5.97;;;;;;;10.65;41.54;100349.19;5051566;28;20790;-73
2022/03/27 02:06:33;;;;;;;7.00;5.90;;;;;;;10.75;41.74;100344.47;5052173;28;20299;-73
2022/03/27 02:09:00;;;;;;;7.83;6.23;;;;;;;10.83;41.27;100340.94;5052410;28;20667;-74
2022/03/27 02:11:27;;;;;;;8.53;5.97;;;;;;;10.88;40.77;100339.41;5052168;28;20195;-74
2022/03/27 02:13:55;;;;;;;6.83;6.23;;;;;;;10.92;40.64;100334.56;5051926;28;20189;-75
2022/03/27 02:16:23;;;;;;;8.50;6.03;;;;;;;10.88;40.56;100350.06;5052424;28;20559;-74
2022/03/27 02:18:50;;;;;;;6.87;6.17;;;;;;;10.98;40.66;100338.34;5051497;28;20221;-74
2022/03/27 02:21:17;;;;;;;14.63;6.50;;;;;;;11.08;40.91;100337.09;5051817;28;20256;-73
2022/03/27 02:23:43;;;;;;;8.37;5.67;;;;;;;11.03;40.18;100337.63;5053235;28;20736;-73
2022/03/27 02:26:10;;;;;;;12.87;6.03;;;;;;;10.89;41.16;100337.56;5055703;28;20255;-73
2022/03/27 02:28:38;;;;;;;7.13;6.20;;;;;;;10.69;41.75;100344.34;5055882;28;20198;-73
2022/03/27 02:31:06;;;;;;;15.17;7.23;;;;;;;10.59;42.79;100338.44;5055833;28;20256;-73
2022/03/27 02:33:33;;;;;;;14.87;7.80;;;;;;;10.48;43.06;100346.81;5055649;28;20247;-73
2022/03/27 02:36:00;;;;;;;8.87;7.50;;;;;;;10.19;43.75;100328.03;5055883;28;20205;-73
2022/03/27 02:38:26;;;;;;;19.17;8.53;;;;;;;10.20;44.05;100343.81;5055086;28;20712;-73
2022/03/27 02:40:53;;;;;;;11.57;8.43;;;;;;;10.06;44.31;100335.72;5055969;28;20192;-73
2022/03/27 02:43:20;;;;;;;17.80;9.30;;;;;;;10.07;44.08;100355.97;5055774;28;20189;-73
2022/03/27 02:45:48;;;;;;;14.27;7.67;;;;;;;9.97;44.60;100348.16;5055005;28;20624;-73
2022/03/27 02:48:16;;;;;;;12.63;7.00;;;;;;;9.97;44.15;100350.00;5056144;28;20197;-73
2022/03/27 02:50:43;;;;;;;10.23;6.67;;;;;;;9.95;43.50;100359.94;5055253;28;20247;-73
2022/03/27 02:53:11;;;;;;;17.10;6.37;;;;;;;10.00;44.13;100362.91;5055255;28;20190;-73
2022/03/27 02:55:38;;;;;;;9.80;6.57;;;;;;;10.04;43.69;100359.75;5055435;28;20578;-73
2022/03/27 02:58:05;;;;;;;7.63;5.50;;;;;;;10.09;42.97;100361.94;5055471;28;20201;-73
2022/03/27 03:00:32;;;;;;;6.30;5.80;;;;;;;10.20;42.39;100361.53;5055922;28;20236;-73
2022/03/27 03:02:59;;;;;;;8.53;6.00;;;;;;;10.26;42.11;100366.19;5054983;28;20612;-72
2022/03/27 03:05:27;;;;;;;6.23;5.60;;;;;;;10.27;42.17;100365.19;5054754;28;20232;-73
2022/03/27 03:07:55;;;;;;;6.93;5.70;;;;;;;10.32;41.90;100368.13;5054694;28;20624;-72
2022/03/27 03:10:22;;;;;;;7.67;5.87;;;;;;;10.35;41.92;100373.94;5054880;28;20268;-73
2022/03/27 03:12:49;;;;;;;12.97;6.10;;;;;;;10.43;41.58;100370.41;5054521;28;20664;-73
2022/03/27 03:15:15;;;;;;;8.20;4.90;;;;;;;10.40;40.76;100368.09;5054821;28;20188;-73
2022/03/27 03:17:43;;;;;;;6.27;5.67;;;;;;;10.47;40.91;100369.06;5054755;28;20254;-73
2022/03/27 03:20:11;;;;;;;9.23;5.10;;;;;;;10.48;40.57;100371.56;5055161;28;20316;-73
2022/03/27 03:22:40;;;;;;;7.47;5.93;;;;;;;10.48;41.26;100368.91;5055178;28;20197;-73
2022/03/27 03:25:08;;;;;;;6.77;5.97;;;;;;;10.55;41.11;100374.34;5054599;28;20227;-73
2022/03/27 03:27:35;;;;;;;9.80;6.40;;;;;;;10.61;40.99;100373.63;5054811;28;20320;-73
2022/03/27 03:30:02;;;;;;;6.30;5.70;;;;;;;10.62;40.21;100386.75;5054201;28;20202;-73
2022/03/27 03:32:28;;;;;;;6.83;6.13;;;;;;;10.69;40.69;100387.69;5054433;28;20243;-73
2022/03/27 03:34:55;;;;;;;11.63;5.87;;;;;;;10.80;40.46;100392.63;5053296;28;20256;-73
2022/03/27 03:37:23;;;;;;;6.33;5.60;;;;;;;10.91;39.71;100386.09;5054389;28;20247;-73
2022/03/27 03:39:51;;;;;;;15.27;6.50;;;;;;;10.96;39.22;100394.34;5054295;28;20287;-73
2022/03/27 03:42:18;;;;;;;6.83;6.13;;;;;;;11.07;39.33;100379.81;5054845;28;20199;-72
2022/03/27 03:44:45;;;;;;;8.80;5.97;;;;;;;10.93;39.50;100384.91;5054429;28;20627;-73
2022/03/27 03:47:12;;;;;;;7.83;5.90;;;;;;;10.87;39.50;100395.41;5053914;28;20662;-73
2022/03/27 03:49:39;;;;;;;11.77;5.90;;;;;;;10.84;39.89;100393.09;5054510;28;20202;-72
2022/03/27 03:52:07;;;;;;;6.57;5.63;;;;;;;10.76;40.39;100401.13;5053826;28;20198;-73
2022/03/27 03:54:35;;;;;;;5.90;5.40;;;;;;;10.72;40.69;100399.81;5053746;28;20199;-73
2022/03/27 03:57:04;;;;;;;11.77;6.47;;;;;;;10.76;40.30;100401.13;5054000;28;20289;-73
2022/03/27 03:59:33;;;;;;;10.20;6.13;;;;;;;10.76;40.87;100398.47;5054442;28;20280;-73
2022/03/27 04:02:00;;;;;;;8.77;6.67;;;;;;;10.79;40.45;100393.59;5053832;28;20202;-73
2022/03/27 04:04:28;;;;;;;8.67;6.87;;;;;;;10.88;40.27;100400.56;5053824;28;20259;-73
2022/03/27 04:06:54;;;;;;;6.23;5.77;;;;;;;10.94;40.39;100404.31;5054224;28;20241;-73
2022/03/27 04:09:21;;;;;;;9.17;6.27;;;;;;;10.99;39.96;100407.28;5054030;28;20255;-72
2022/03/27 04:11:48;;;;;;;9.80;5.63;;;;;;;10.99;40.05;100404.63;5053427;28;20627;-72
2022/03/27 04:14:16;;;;;;;8.43;6.23;;;;;;;11.08;39.83;100403.56;5054512;28;20203;-73
2022/03/27 04:16:43;;;;;;;6.50;5.80;;;;;;;11.06;40.03;100402.91;5054174;28;20257;-73
2022/03/27 04:19:11;;;;;;;8.53;5.93;;;;;;;11.04;39.77;100412.91;5053548;28;20276;-73
2022/03/27 04:21:39;;;;;;;11.30;7.03;;;;;;;11.09;40.11;100402.56;5054062;28;20206;-72
2022/03/27 04:24:07;;;;;;;10.63;6.10;;;;;;;11.16;40.01;100419.47;5053524;28;20203;-73
2022/03/27 04:26:34;;;;;;;14.00;7.20;;;;;;;11.22;40.09;100416.09;5053115;28;20730;-73
2022/03/27 04:29:00;;;;;;;8.13;6.70;;;;;;;11.29;40.15;100422.34;5053426;28;20207;-73
2022/03/27 04:31:29;;;;;;;11.97;6.13;;;;;;;11.33;40.00;100431.63;5053851;28;20249;-73
2022/03/27 04:33:56;;;;;;;8.83;6.10;;;;;;;11.32;40.36;100421.16;5052956;28;20650;-73
2022/03/27 04:36:23;;;;;;;15.60;6.53;;;;;;;11.59;40.31;100423.28;5053166;28;20188;-73
2022/03/27 04:38:49;;;;;;;8.87;6.27;;;;;;;11.75;39.74;100423.97;5052597;28;20258;-72
2022/03/27 04:41:16;;;;;;;8.90;6.37;;;;;;;11.95;39.10;100424.28;5054166;28;20286;-73
2022/03/27 04:43:46;;;;;;;9.13;6.60;;;;;;;12.36;38.67;100433.47;5052697;28;20195;-73
2022/03/27 04:46:13;;;;;;;9.40;6.23;;;;;;;12.76;37.84;100435.66;5052441;28;20656;-73
2022/03/27 04:48:41;;;;;;;7.80;6.87;;;;;;;13.04;37.07;100434.78;5052651;28;20660;-73
2022/03/27 04:51:08;;;;;;;11.57;7.00;;;;;;;13.50;36.38;100440.56;5052918;28;20198;-73
2022/03/27 04:53:34;;;;;;;11.13;5.77;;;;;;;13.94;35.74;100450.00;5052573;28;20665;-75
2022/03/27 04:56:01;;;;;;;6.63;5.70;;;;;;;14.45;34.73;100448.72;5053417;28;20273;-76
2022/03/27 04:58:28;;;;;;;6.60;5.93;;;;;;;14.76;33.93;100451.75;5052723;28;20192;-75
2022/03/27 05:00:55;;;;;;;13.33;7.23;;;;;;;15.15;33.12;100445.72;5052297;28;20675;-77
2022/03/27 05:03:21;;;;;;;8.13;5.97;;;;;;;15.52;32.37;100448.66;5052996;28;20246;-74
2022/03/27 05:05:49;;;;;;;12.23;6.37;;;;;;;15.98;31.72;100448.69;5052363;28;20637;-74
2022/03/27 05:08:16;;;;;;;7.87;6.50;;;;;;;16.44;31.12;100460.19;5053078;28;20192;-74
2022/03/27 05:10:43;;;;;;;8.93;6.30;;;;;;;16.84;30.03;100450.16;5052110;28;20207;-76
2022/03/27 05:13:10;;;;;;;8.40;7.30;;;;;;;17.32;29.78;100459.41;5052409;28;20196;-77
2022/03/27 05:15:37;;;;;;;12.07;7.13;;;;;;;17.58;29.19;100467.31;5052178;28;20664;-77
2022/03/27 05:18:04;;;;;;;7.43;6.73;;;;;;;17.74;28.77;100461.41;5053081;28;20278;-76
2022/03/27 05:20:31;;;;;;;9.07;6.17;;;;;;;17.93;28.45;100457.75;5052305;28;20216;-77
2022/03/27 05:23:00;;;;;;;7.93;7.17;;;;;;;18.02;28.30;100461.78;5052425;28;20223;-74
2022/03/27 05:25:27;;;;;;;6.97;6.07;;;;;;;18.27;27.87;100470.66;5052568;28;20287;-76
2022/03/27 05:27:56;;;;;;;6.80;6.10;;;;;;;18.12;27.65;100459.41;5052023;28;20254;-77
2022/03/27 05:30:24;;;;;;;8.17;5.90;;;;;;;17.97;28.31;100461.63;5052513;28;20605;-78
2022/03/27 05:32:53;;;;;;;11.17;6.03;;;;;;;17.62;28.66;100455.09;5052056;28;20193;-78
2022/03/27 05:35:21;;;;;;;11.03;6.30;;;;;;;18.17;28.36;100470.34;5051853;28;20686;-79
2022/03/27 05:37:48;;;;;;;8.87;6.03;;;;;;;18.36;27.65;100466.66;5052192;28;20193;-77
2022/03/27 05:40:18;;;;;;;6.63;5.97;;;;;;;18.63;27.35;100465.34;5051649;28;20274;-76
2022/03/27 05:42:45;;;;;;;6.07;5.20;;;;;;;18.26;27.71;100469.03;5052174;28;20193;-76
2022/03/27 05:45:13;;;;;;;19.37;6.40;;;;;;;18.16;28.12;100474.06;5052117;28;20254;-77
2022/03/27 05:47:41;;;;;;;10.80;6.70;;;;;;;17.75;28.64;100466.56;5052204;28;20203;-76
2022/03/27 05:50:10;;;;;;;9.30;6.60;;;;;;;17.72;28.70;100477.75;5051781;28;20198;-76
2022/03/27 05:52:36;;;;;;;14.23;6.13;;;;;;;17.65;28.79;100479.69;5051940;28;20664;-75
2022/03/27 05:55:07;;;;;;;14.17;5.93;;;;;;;17.76;28.84;100481.66;5052162;28;20271;-77
2022/03/27 05:57:35;;;;;;;14.97;5.53;;;;;;;17.88;27.94;100473.72;5052044;28;20262;-76
2022/03/27 06:00:04;;;;;;;7.27;5.97;;;;;;;18.16;28.05;100485.66;5055981;28;20231;-75
2022/03/27 06:02:31;;;;;;;8.90;6.20;;;;;;;17.80;28.30;100487.44;5056129;28;20279;-74
2022/03/27 06:04:58;;;;;;;8.67;5.93;;;;;;;18.04;27.88;100481.22;5056156;28;20262;-72
2022/03/27 06:07:25;;;;;;;6.83;6.07;;;;;;;18.51;27.92;100473.34;5057024;28;20232;-71
2022/03/27 06:09:52;;;;;;;6.63;5.07;;;;;;;18.63;27.53;100484.19;5055642;28;20745;-69
2022/03/27 06:12:18;;;;;;;9.83;6.73;;;;;;;18.76;27.54;100473.25;5056269;28;20235;-69
2022/03/27 06:14:48;;;;;;;10.63;5.63;;;;;;;18.95;27.04;100485.69;5055605;28;20583;-70
2022/03/27 06:17:14;;;;;;;6.90;6.13;;;;;;;18.95;27.16;100480.28;5053955;28;20196;-71
2022/03/27 06:19:41;;;;;;;9.63;5.80;;;;;;;19.25;27.10;100481.16;5055289;28;20224;-69
2022/03/27 06:22:08;;;;;;;13.47;5.77;;;;;;;19.59;27.44;100488.53;5055407;28;20203;-70
2022/03/27 06:24:35;;;;;;;6.63;5.27;;;;;;;19.52;27.99;100482.44;5055648;28;20199;-70
2022/03/27 06:27:02;;;;;;;6.20;5.30;;;;;;;19.48;26.67;100482.06;5055340;28;20615;-71
2022/03/27 06:29:28;;;;;;;7.50;5.30;;;;;;;19.92;28.43;100472.66;5055320;28;20200;-70
2022/03/27 06:31:56;;;;;;;7.77;5.73;;;;;;;20.09;27.16;100479.03;5056305;28;20263;-69
2022/03/27 06:34:26;;;;;;;10.30;5.63;;;;;;;20.58;25.55;100490.19;5055516;28;20627;-70
2022/03/27 06:36:52;;;;;;;5.77;5.27;;;;;;;20.96;25.73;100478.91;5055442;28;20202;-71
2022/03/27 06:39:19;;;;;;;6.93;6.30;;;;;;;21.75;25.85;100492.31;5053978;28;20240;-72
2022/03/27 06:41:46;;;;;;;7.23;5.27;;;;;;;22.32;25.14;100488.38;5055623;28;20254;-72
2022/03/27 06:44:13;;;;;;;9.77;5.20;;;;;;;22.50;24.17;100496.25;5055263;28;20197;-73
2022/03/27 06:46:40;;;;;;;6.77;5.20;;;;;;;22.97;23.67;100497.44;5054789;28;20199;-73
2022/03/27 06:49:08;;;;;;;8.53;5.40;;;;;;;22.96;24.55;100495.81;5055254;28;20250;-71
2022/03/27 06:51:35;;;;;;;6.73;4.90;;;;;;;23.05;24.54;100499.72;5055012;28;20196;-70
2022/03/27 06:54:02;;;;;;;8.43;5.63;;;;;;;23.54;24.37;100495.97;5054809;28;20202;-73
2022/03/27 06:56:29;;;;;;;12.50;5.87;;;;;;;23.90;23.56;100497.94;5054725;28;20267;-72
2022/03/27 06:58:55;;;;;;;16.50;5.67;;;;;;;23.61;22.18;100501.19;5054668;28;20197;-70
2022/03/27 07:04:07;;;;;;;14.37;5.50;;;;;;;23.59;22.76;100495.19;5071583;28;20202;-70
2022/03/27 07:06:34;;;;;;;8.67;6.50;;;;;;;23.43;22.53;100510.50;5072503;28;20223;-70
2022/03/27 07:09:01;;;;;;;6.93;5.60;;;;;;;22.90;23.20;100507.66;5073182;28;20204;-72
2022/03/27 07:11:28;;;;;;;6.17;5.57;;;;;;;23.09;22.75;100490.00;5074280;28;20198;-73
2022/03/27 07:13:54;;;;;;;7.67;5.10;;;;;;;23.37;22.88;100497.13;5074156;28;20200;-72
2022/03/27 07:16:21;;;;;;;11.90;5.43;;;;;;;23.17;22.26;100503.13;5074227;28;20198;-74
2022/03/27 07:18:49;;;;;;;9.57;5.60;;;;;;;22.84;22.20;100514.09;5073990;28;20606;-69
2022/03/27 07:21:19;;;;;;;11.60;5.83;;;;;;;22.60;23.51;100507.25;5074083;28;20219;-71
2022/03/27 07:23:46;;;;;;;11.00;5.60;;;;;;;22.46;22.83;100505.94;5074094;28;20199;-71
2022/03/27 07:26:13;;;;;;;6.03;5.33;;;;;;;22.39;22.58;100505.28;5074404;28;20196;-70
2022/03/27 07:28:40;;;;;;;8.43;5.23;;;;;;;22.46;24.07;100505.94;5074512;28;20278;-71
2022/03/27 07:31:07;;;;;;;5.83;5.33;;;;;;;22.43;22.43;100501.00;5073931;28;20265;-71
2022/03/27 07:33:33;;;;;;;7.90;5.93;;;;;;;22.32;23.41;100503.81;5072690;28;20249;-71
2022/03/27 07:36:01;;;;;;;7.60;6.07;;;;;;;22.47;22.21;100507.63;5074116;28;20686;-71
2022/03/27 07:38:29;;;;;;;5.60;5.10;;;;;;;22.69;22.31;100505.75;5074070;28;20207;-72
2022/03/27 07:40:55;;;;;;;26.50;6.03;;;;;;;22.49;22.14;100508.16;5073672;28;20216;-71
2022/03/27 07:43:22;;;;;;;9.33;5.13;;;;;;;22.22;22.04;100504.47;5073471;28;20192;-72
2022/03/27 07:45:49;;;;;;;16.43;5.70;;;;;;;22.20;23.93;100495.78;5073729;28;20718;-72
2022/03/27 07:48:15;;;;;;;5.87;5.27;;;;;;;22.33;22.46;100498.16;5073480;28;20663;-70
2022/03/27 07:50:42;;;;;;;9.83;5.60;;;;;;;22.09;22.67;100499.38;5073507;28;20196;-71
2022/03/27 07:53:09;;;;;;;11.00;5.23;;;;;;;22.11;22.60;100494.56;5073595;28;20200;-71
2022/03/27 07:55:38;;;;;;;8.50;6.27;;;;;;;22.11;22.95;100494.56;5073489;28;20257;-70
2022/03/27 07:58:05;;;;;;;7.03;5.37;;;;;;;22.21;22.74;100486.59;5073174;28;20202;-71
2022/03/27 08:00:32;;;;;;;10.57;6.30;;;;;;;22.86;22.22;100487.53;5074508;28;20221;-70
2022/03/27 08:02:59;;;;;;;22.60;6.80;;;;;;;22.50;22.08;100490.03;5073127;28;20723;-72
2022/03/27 08:05:26;;;;;;;9.97;5.87;;;;;;;22.60;21.82;100480.16;5072647;28;20569;-73
2022/03/27 08:07:53;;;;;;;25.40;7.63;;;;;;;22.36;21.83;100483.28;5072706;28;20195;-71
2022/03/27 08:10:20;;;;;;;10.40;5.43;;;;;;;22.32;21.40;100487.56;5072918;28;20208;-70
2022/03/27 08:12:48;;;;;;;9.13;5.90;;;;;;;22.75;21.17;100483.06;5072814;28;20278;-69
2022/03/27 08:15:17;;;;;;;7.13;5.73;;;;;;;23.14;21.43;100481.94;5070078;28;20193;-68
2022/03/27 08:17:44;;;;;;;13.10;6.40;;;;;;;23.16;20.95;100468.13;5072304;28;20199;-70
2022/03/27 08:20:12;;;;;;;8.33;5.80;;;;;;;23.42;20.79;100468.19;5072669;28;20271;-71
2022/03/27 08:22:38;;;;;;;14.47;6.67;;;;;;;23.04;20.83;100465.56;5072611;28;20214;-73
2022/03/27 08:25:06;;;;;;;69.47;9.03;;;;;;;22.39;22.11;100478.22;5068761;28;20201;-71
2022/03/27 08:27:32;;;;;;;11.23;6.67;;;;;;;22.84;20.74;100472.63;5071711;28;20233;-71
2022/03/27 08:30:00;;;;;;;8.40;6.73;;;;;;;23.04;20.43;100475.56;5072044;28;20196;-71
2022/03/27 08:32:27;;;;;;;10.67;6.83;;;;;;;22.47;21.08;100461.56;5072682;28;20640;-71
2022/03/27 08:34:54;;;;;;;7.93;7.23;;;;;;;22.39;21.21;100467.38;5072549;28;20241;-71
2022/03/27 08:37:21;;;;;;;24.67;6.73;;;;;;;22.88;20.35;100460.19;5072954;28;20196;-70
2022/03/27 08:39:48;;;;;;;10.47;6.63;;;;;;;23.19;21.08;100451.38;5072570;28;20193;-70
2022/03/27 08:42:19;;;;;;;12.83;7.33;;;;;;;23.25;19.77;100462.03;5071998;28;20248;-71
2022/03/27 08:44:46;;;;;;;11.40;6.53;;;;;;;23.31;19.80;100441.19;5072295;28;20224;-71
2022/03/27 08:47:22;;;;;;;14.67;8.00;;;;;;;23.04;19.47;100438.47;5072163;28;20573;-69
2022/03/27 08:49:54;;;;;;;21.10;7.50;;;;;;;23.23;19.71;100436.25;5063139;28;20234;-70
2022/03/27 08:52:34;;;;;;;7.63;6.93;;;;;;;23.34;19.33;100433.38;5072027;28;20191;-70
2022/03/27 08:55:05;;;;;;;15.93;7.00;;;;;;;23.49;19.20;100425.38;5072416;28;20220;-70
2022/03/27 08:57:48;;;;;;;14.67;7.00;;;;;;;22.96;19.69;100430.78;5070684;28;20182;-72
2022/03/27 09:00:15;;;;;;;10.47;5.93;;;;;;;22.76;20.23;100425.13;5071317;28;20263;-70
2022/03/27 09:02:45;;;;;;;9.93;6.47;;;;;;;23.17;19.55;100419.09;5072841;28;20633;-73
2022/03/27 09:05:12;;;;;;;8.20;6.77;;;;;;;23.10;19.85;100421.16;5069648;28;20195;-74
2022/03/27 09:07:38;;;;;;;15.07;6.20;;;;;;;23.17;20.73;100415.53;5066770;28;20188;-72
2022/03/27 09:10:08;;;;;;;6.90;6.20;;;;;;;23.70;19.16;100405.50;5071368;28;20185;-72
2022/03/27 09:12:36;;;;;;;9.00;6.33;;;;;;;23.56;19.05;100406.19;5072353;28;20203;-71
2022/03/27 09:15:07;;;;;;;292.93;23.53;;;;;;;24.05;18.49;100407.69;5072093;28;20220;-72
2022/03/27 09:17:34;;;;;;;21.67;6.97;;;;;;;24.27;18.38;100398.34;5071955;28;20195;-72
2022/03/27 09:20:02;;;;;;;7.50;6.80;;;;;;;24.16;17.14;100399.34;5071663;28;20209;-71
2022/03/27 09:22:31;;;;;;;23.17;7.80;;;;;;;24.25;16.95;100407.78;5071403;28;20187;-71
2022/03/27 09:24:59;;;;;;;9.33;6.70;;;;;;;24.37;17.76;100406.53;5071861;28;20198;-72
2022/03/27 09:27:30;;;;;;;16.47;6.97;;;;;;;23.82;17.30;100406.16;5071908;28;20195;-71
2022/03/27 09:30:03;;;;;;;12.97;7.23;;;;;;;23.78;16.94;100396.88;5071691;28;20279;-73
2022/03/27 09:32:31;;;;;;;43.80;8.80;;;;;;;23.61;17.53;100390.75;5071775;28;20240;-71
2022/03/27 09:34:59;;;;;;;23.60;7.17;;;;;;;23.69;19.02;100401.13;5071520;28;20670;-70
2022/03/27 09:37:32;;;;;;;20.87;8.23;;;;;;;23.97;17.81;100398.13;5071473;28;20685;-70
2022/03/27 09:39:59;;;;;;;30.10;8.60;;;;;;;23.98;17.11;100380.75;5065309;28;20274;-71
2022/03/27 09:42:27;;;;;;;15.63;6.50;;;;;;;23.96;19.36;100391.06;5065882;28;20229;-67
2022/03/27 09:45:12;;;;;;;15.07;6.27;;;;;;;24.49;17.67;100388.13;5071343;28;20248;-66
2022/03/27 09:47:39;;;;;;;12.93;7.13;;;;;;;24.58;16.77;100386.50;5069967;28;20229;-67
2022/03/27 09:50:07;;;;;;;11.13;6.70;;;;;;;24.93;16.40;100394.84;5071542;28;20202;-67
2022/03/27 09:52:35;;;;;;;8.43;6.73;;;;;;;25.13;15.84;100382.34;5071579;28;20191;-67
2022/03/27 09:55:05;;;;;;;9.20;6.10;;;;;;;25.47;15.14;100388.97;5071246;28;20196;-68
2022/03/27 09:57:33;;;;;;;20.67;7.53;;;;;;;25.55;16.00;100374.84;5068877;28;20187;-68
2022/03/27 10:00:13;;;;;;;13.67;6.90;;;;;;;25.49;15.86;100384.06;5070935;28;20246;-67
2022/03/27 10:02:41;;;;;;;7.33;6.30;;;;;;;25.27;15.42;100388.94;5071537;28;20202;-67
2022/03/27 10:05:09;;;;;;;9.83;6.87;;;;;;;25.19;16.90;100381.31;5071337;28;20660;-68
2022/03/27 10:07:43;;;;;;;14.33;8.13;;;;;;;25.26;15.22;100381.81;5071276;28;20242;-67
2022/03/27 10:10:11;;;;;;;24.67;10.23;;;;;;;25.40;15.89;100372.09;5068818;28;20628;-67
2022/03/27 10:12:39;;;;;;;16.30;7.67;;;;;;;25.42;15.61;100375.34;5071318;28;20630;-68
2022/03/27 10:15:09;;;;;;;12.73;7.30;;;;;;;25.41;15.15;100379.16;5070229;28;20184;-68
2022/03/27 10:17:37;;;;;;;12.37;7.03;;;;;;;24.87;16.03;100368.72;5070723;28;20253;-68
2022/03/27 10:20:07;;;;;;;11.70;7.90;;;;;;;25.17;16.09;100372.56;5070369;28;20194;-67
2022/03/27 10:22:39;;;;;;;11.57;8.17;;;;;;;25.17;16.20;100367.13;5067452;28;20207;-68
2022/03/27 10:25:09;;;;;;;8.23;7.47;;;;;;;25.11;15.27;100362.78;5060103;28;20188;-69
2022/03/27 10:27:37;;;;;;;7.40;6.60;;;;;;;24.79;16.02;100350.19;5062281;28;20876;-68
2022/03/27 10:30:05;;;;;;;14.60;6.87;;;;;;;24.81;17.32;100358.09;5071281;28;20740;-68
2022/03/27 10:32:34;;;;;;;50.53;8.33;;;;;;;25.02;15.93;100353.53;5054647;28;20200;-67
2022/03/27 10:35:23;;;;;;;16.70;6.70;;;;;;;25.12;15.42;100350.81;5051583;28;20261;-67
2022/03/27 10:38:00;;;;;;;9.07;6.93;;;;;;;24.99;15.09;100354.88;5051868;28;20254;-66
2022/03/27 10:40:35;;;;;;;15.90;6.93;;;;;;;24.87;15.39;100349.69;5063182;28;20191;-67
2022/03/27 10:43:24;;;;;;;12.23;6.50;;;;;;;24.87;17.02;100340.72;5071300;28;20186;-67
2022/03/27 10:46:13;;;;;;;7.43;6.23;;;;;;;24.94;15.15;100347.53;5075021;28;20248;-67
2022/03/27 10:48:42;;;;;;;13.27;6.60;;;;;;;25.21;16.55;100343.75;5074773;28;20188;-67
2022/03/27 10:51:09;;;;;;;15.67;7.30;;;;;;;25.16;16.01;100344.59;5074565;28;20253;-69
2022/03/27 10:53:36;;;;;;;11.07;6.97;;;;;;;25.25;15.62;100331.25;5073071;28;20192;-66
2022/03/27 10:56:05;;;;;;;8.27;6.73;;;;;;;24.82;16.05;100333.38;5073201;28;20188;-67
2022/03/27 10:58:38;;;;;;;35.10;9.27;;;;;;;25.07;15.22;100338.03;5073656;28;20252;-76
2022/03/27 11:01:07;;;;;;;12.13;7.67;;;;;;;25.23;16.60;100328.00;5073162;28;20211;-70
2022/03/27 11:03:52;;;;;;;9.27;6.87;;;;;;;25.24;15.38;100321.47;5074202;28;20192;-71
2022/03/27 11:06:23;;;;;;;13.57;7.00;;;;;;;25.52;16.45;100318.22;5073645;28;20232;-71
2022/03/27 11:08:51;;;;;;;9.70;7.73;;;;;;;25.58;15.48;100319.84;5073479;28;20658;-71
2022/03/27 11:12:04;;;;;;;10.73;8.10;;;;;;;25.28;15.63;100314.41;5073577;28;20251;-71
2022/03/27 11:14:58;;;;;;;11.90;8.13;;;;;;;25.32;16.25;100304.63;5073562;28;20397;-73
2022/03/27 11:17:45;;;;;;;11.67;7.33;;;;;;;25.26;15.34;100303.78;5073442;28;20184;-73
2022/03/27 11:21:02;;;;;;;8.40;7.57;;;;;;;25.41;15.07;100309.25;5073322;28;20678;-73
2022/03/27 11:23:36;;;;;;;15.17;8.13;;;;;;;25.15;15.06;100293.19;5073366;28;20200;-73
2022/03/27 11:26:05;;;;;;;12.30;8.27;;;;;;;24.90;15.99;100297.50;5073314;28;20672;-73
2022/03/27 11:28:49;;;;;;;10.93;7.53;;;;;;;25.18;16.48;100288.00;5073007;28;20195;-73
2022/03/27 11:31:27;;;;;;;12.20;6.60;;;;;;;25.46;15.76;100294.81;5074019;28;20274;-73
2022/03/27 11:34:20;;;;;;;13.27;8.00;;;;;;;25.23;15.10;100292.63;5073999;28;20622;-73